sensor_id;sensor_type;location;lat;lon;timestamp;pressure;altitude;pressure_sealevel;temperature;humidity
74125;BME280;62475;52.192;5.396;2022-08-21T00:00:29;101803.66;;;15.14;88.44
74125;BME280;62475;52.192;5.396;2022-08-21T00:02:59;101809.22;;;15.14;89.79
74125;BME280;62475;52.192;5.396;2022-08-21T00:05:27;101813.25;;;15.22;88.85
74125;BME280;62475;52.192;5.396;2022-08-21T00:07:53;101812.63;;;15.25;88.08
74125;BME280;62475;52.192;5.396;2022-08-21T00:10:19;101804.28;;;15.11;88.60
74125;BME280;62475;52.192;5.396;2022-08-21T00:12:46;101790.97;;;15.13;88.60
74125;BME280;62475;52.192;5.396;2022-08-21T00:15:15;101810.03;;;15.15;88.73
74125;BME280;62475;52.192;5.396;2022-08-21T00:17:41;101810.91;;;15.10;88.11
74125;BME280;62475;52.192;5.396;2022-08-21T00:20:09;101804.81;;;15.13;89.28
74125;BME280;62475;52.192;5.396;2022-08-21T00:22:35;101793.88;;;15.03;89.10
74125;BME280;62475;52.192;5.396;2022-08-21T00:25:01;101806.81;;;15.08;89.46
74125;BME280;62475;52.192;5.396;2022-08-21T00:27:27;101797.59;;;15.12;89.27
74125;BME280;62475;52.192;5.396;2022-08-21T00:29:52;101793.97;;;15.17;88.03
74125;BME280;62475;52.192;5.396;2022-08-21T00:32:26;101795.75;;;15.08;87.33
74125;BME280;62475;52.192;5.396;2022-08-21T00:34:52;101794.84;;;15.12;88.06
74125;BME280;62475;52.192;5.396;2022-08-21T00:37:19;101778.72;;;15.01;87.35
74125;BME280;62475;52.192;5.396;2022-08-21T00:39:44;101781.91;;;15.08;86.58
74125;BME280;62475;52.192;5.396;2022-08-21T00:42:11;101797.47;;;15.04;87.59
74125;BME280;62475;52.192;5.396;2022-08-21T00:44:43;101788.72;;;14.97;88.51
74125;BME280;62475;52.192;5.396;2022-08-21T00:47:09;101789.03;;;14.95;88.11
74125;BME280;62475;52.192;5.396;2022-08-21T00:49:35;101781.91;;;14.89;87.44
74125;BME280;62475;52.192;5.396;2022-08-21T00:52:03;101803.84;;;15.04;87.58
74125;BME280;62475;52.192;5.396;2022-08-21T00:54:31;101788.13;;;15.00;87.21
74125;BME280;62475;52.192;5.396;2022-08-21T00:57:02;101799.78;;;14.97;87.64
74125;BME280;62475;52.192;5.396;2022-08-21T00:59:30;101780.06;;;14.85;87.52
74125;BME280;62475;52.192;5.396;2022-08-21T01:01:57;101779.44;;;14.88;88.14
74125;BME280;62475;52.192;5.396;2022-08-21T01:04:23;101789.84;;;14.96;86.93
74125;BME280;62475;52.192;5.396;2022-08-21T01:06:48;101788.06;;;14.86;87.89
74125;BME280;62475;52.192;5.396;2022-08-21T01:09:14;101789.94;;;14.91;88.05
74125;BME280;62475;52.192;5.396;2022-08-21T01:11:41;101787.44;;;14.89;88.27
74125;BME280;62475;52.192;5.396;2022-08-21T01:14:08;101787.97;;;14.91;87.63
74125;BME280;62475;52.192;5.396;2022-08-21T01:16:37;101771.31;;;14.77;87.87
74125;BME280;62475;52.192;5.396;2022-08-21T01:19:03;101745.28;;;14.60;88.41
74125;BME280;62475;52.192;5.396;2022-08-21T01:21:28;101777.59;;;14.83;87.73
74125;BME280;62475;52.192;5.396;2022-08-21T01:23:55;101783.13;;;14.83;87.77
74125;BME280;62475;52.192;5.396;2022-08-21T01:26:28;101784.03;;;14.78;87.40
74125;BME280;62475;52.192;5.396;2022-08-21T01:31:24;101777.31;;;14.66;88.34
74125;BME280;62475;52.192;5.396;2022-08-21T01:33:51;101785.44;;;14.76;88.57
74125;BME280;62475;52.192;5.396;2022-08-21T01:36:16;101785.22;;;14.72;88.68
74125;BME280;62475;52.192;5.396;2022-08-21T01:38:42;101772.88;;;14.65;88.18
74125;BME280;62475;52.192;5.396;2022-08-21T01:41:07;101780.28;;;14.69;88.81
74125;BME280;62475;52.192;5.396;2022-08-21T01:43:33;101774.00;;;14.64;88.11
74125;BME280;62475;52.192;5.396;2022-08-21T01:45:58;101785.00;;;14.69;88.97
74125;BME280;62475;52.192;5.396;2022-08-21T01:48:23;101773.47;;;14.62;88.00
74125;BME280;62475;52.192;5.396;2022-08-21T01:50:48;101786.94;;;14.68;88.49
74125;BME280;62475;52.192;5.396;2022-08-21T01:53:14;101774.31;;;14.62;88.84
74125;BME280;62475;52.192;5.396;2022-08-21T01:55:41;101777.16;;;14.57;89.66
74125;BME280;62475;52.192;5.396;2022-08-21T01:58:06;101775.94;;;14.63;89.36
74125;BME280;62475;52.192;5.396;2022-08-21T02:00:32;101764.50;;;14.51;89.60
74125;BME280;62475;52.192;5.396;2022-08-21T02:02:57;101773.47;;;14.62;89.11
74125;BME280;62475;52.192;5.396;2022-08-21T02:05:22;101768.19;;;14.65;88.51
74125;BME280;62475;52.192;5.396;2022-08-21T02:07:50;101765.78;;;14.59;88.00
74125;BME280;62475;52.192;5.396;2022-08-21T02:10:21;101769.81;;;14.66;88.84
74125;BME280;62475;52.192;5.396;2022-08-21T02:12:47;101772.53;;;14.71;89.05
74125;BME280;62475;52.192;5.396;2022-08-21T02:15:13;101753.97;;;14.53;87.81
74125;BME280;62475;52.192;5.396;2022-08-21T02:17:41;101760.84;;;14.56;88.13
74125;BME280;62475;52.192;5.396;2022-08-21T02:20:08;101748.59;;;14.43;88.73
74125;BME280;62475;52.192;5.396;2022-08-21T02:22:34;101754.88;;;14.49;90.25
74125;BME280;62475;52.192;5.396;2022-08-21T02:24:59;101756.50;;;14.50;89.75
74125;BME280;62475;52.192;5.396;2022-08-21T02:27:25;101757.41;;;14.45;91.21
74125;BME280;62475;52.192;5.396;2022-08-21T02:29:50;101758.13;;;14.51;89.11
74125;BME280;62475;52.192;5.396;2022-08-21T02:32:15;101749.69;;;14.42;89.73
74125;BME280;62475;52.192;5.396;2022-08-21T02:34:41;101747.47;;;14.44;89.62
74125;BME280;62475;52.192;5.396;2022-08-21T02:37:06;101747.53;;;14.39;89.33
74125;BME280;62475;52.192;5.396;2022-08-21T02:39:31;101735.50;;;14.30;90.81
74125;BME280;62475;52.192;5.396;2022-08-21T02:41:57;101748.44;;;14.35;90.74
74125;BME280;62475;52.192;5.396;2022-08-21T02:44:22;101754.25;;;14.33;89.82
74125;BME280;62475;52.192;5.396;2022-08-21T02:46:47;101743.56;;;14.27;90.85
74125;BME280;62475;52.192;5.396;2022-08-21T02:49:12;101746.00;;;14.28;89.29
74125;BME280;62475;52.192;5.396;2022-08-21T02:51:38;101748.50;;;14.30;89.94
74125;BME280;62475;52.192;5.396;2022-08-21T02:54:03;101735.25;;;14.27;90.28
74125;BME280;62475;52.192;5.396;2022-08-21T02:56:28;101747.16;;;14.27;90.00
74125;BME280;62475;52.192;5.396;2022-08-21T02:58:54;101742.97;;;14.25;89.86
74125;BME280;62475;52.192;5.396;2022-08-21T03:01:20;101727.91;;;14.17;92.11
74125;BME280;62475;52.192;5.396;2022-08-21T03:03:47;101739.50;;;14.19;92.11
74125;BME280;62475;52.192;5.396;2022-08-21T03:06:15;101729.53;;;14.18;91.16
74125;BME280;62475;52.192;5.396;2022-08-21T03:08:41;101731.47;;;14.18;90.44
74125;BME280;62475;52.192;5.396;2022-08-21T03:11:07;101734.59;;;14.11;90.81
74125;BME280;62475;52.192;5.396;2022-08-21T03:13:33;101733.44;;;14.17;91.09
74125;BME280;62475;52.192;5.396;2022-08-21T03:15:58;101731.59;;;14.08;92.27
74125;BME280;62475;52.192;5.396;2022-08-21T03:18:24;101724.75;;;14.05;93.08
74125;BME280;62475;52.192;5.396;2022-08-21T03:20:50;101729.97;;;14.07;91.48
74125;BME280;62475;52.192;5.396;2022-08-21T03:23:16;101728.03;;;14.07;92.16
74125;BME280;62475;52.192;5.396;2022-08-21T03:25:44;101724.84;;;14.19;92.21
74125;BME280;62475;52.192;5.396;2022-08-21T03:28:14;101725.28;;;14.07;92.30
74125;BME280;62475;52.192;5.396;2022-08-21T03:30:41;101704.50;;;14.10;91.18
74125;BME280;62475;52.192;5.396;2022-08-21T03:33:07;101721.91;;;14.10;90.92
74125;BME280;62475;52.192;5.396;2022-08-21T03:35:32;101729.00;;;14.16;90.90
74125;BME280;62475;52.192;5.396;2022-08-21T03:37:58;101716.00;;;13.98;92.38
74125;BME280;62475;52.192;5.396;2022-08-21T03:40:24;101717.63;;;13.99;92.53
74125;BME280;62475;52.192;5.396;2022-08-21T03:42:49;101715.16;;;13.98;92.12
74125;BME280;62475;52.192;5.396;2022-08-21T03:45:16;101722.63;;;13.97;91.71
74125;BME280;62475;52.192;5.396;2022-08-21T03:48:00;101712.84;;;13.86;92.70
74125;BME280;62475;52.192;5.396;2022-08-21T03:50:28;101722.06;;;14.00;92.76
74125;BME280;62475;52.192;5.396;2022-08-21T03:52:55;101722.63;;;13.97;93.33
74125;BME280;62475;52.192;5.396;2022-08-21T03:55:22;101716.16;;;13.83;93.90
74125;BME280;62475;52.192;5.396;2022-08-21T03:57:47;101703.19;;;13.84;92.75
74125;BME280;62475;52.192;5.396;2022-08-21T04:00:14;101718.91;;;13.88;92.50
74125;BME280;62475;52.192;5.396;2022-08-21T04:02:41;101713.31;;;13.93;93.17
74125;BME280;62475;52.192;5.396;2022-08-21T04:05:08;101710.59;;;13.88;92.41
74125;BME280;62475;52.192;5.396;2022-08-21T04:07:33;101719.41;;;13.90;92.48
74125;BME280;62475;52.192;5.396;2022-08-21T04:09:59;101708.09;;;13.87;91.75
74125;BME280;62475;52.192;5.396;2022-08-21T04:12:24;101717.16;;;13.92;91.88
74125;BME280;62475;52.192;5.396;2022-08-21T04:14:49;101712.84;;;13.86;93.52
74125;BME280;62475;52.192;5.396;2022-08-21T04:17:16;101716.75;;;13.80;92.77
74125;BME280;62475;52.192;5.396;2022-08-21T04:19:42;101706.97;;;13.69;93.96
74125;BME280;62475;52.192;5.396;2022-08-21T04:22:07;101721.75;;;13.78;93.42
74125;BME280;62475;52.192;5.396;2022-08-21T04:24:33;101709.91;;;13.78;94.33
74125;BME280;62475;52.192;5.396;2022-08-21T04:26:58;101718.19;;;13.78;93.37
74125;BME280;62475;52.192;5.396;2022-08-21T04:29:23;101721.75;;;13.78;94.74
74125;BME280;62475;52.192;5.396;2022-08-21T04:31:48;101721.44;;;13.80;94.50
74125;BME280;62475;52.192;5.396;2022-08-21T04:34:14;101713.53;;;13.73;93.88
74125;BME280;62475;52.192;5.396;2022-08-21T04:36:42;101714.94;;;13.71;94.55
74125;BME280;62475;52.192;5.396;2022-08-21T04:39:07;101726.50;;;13.73;94.28
74125;BME280;62475;52.192;5.396;2022-08-21T04:41:32;101712.50;;;13.69;94.91
74125;BME280;62475;52.192;5.396;2022-08-21T04:43:58;101726.00;;;13.71;94.22
74125;BME280;62475;52.192;5.396;2022-08-21T04:46:24;101707.88;;;13.59;94.42
74125;BME280;62475;52.192;5.396;2022-08-21T04:48:50;101713.47;;;13.54;95.65
74125;BME280;62475;52.192;5.396;2022-08-21T04:51:17;101723.06;;;13.62;95.67
74125;BME280;62475;52.192;5.396;2022-08-21T04:53:51;101718.69;;;13.56;95.32
74125;BME280;62475;52.192;5.396;2022-08-21T04:56:23;101729.38;;;13.62;96.67
74125;BME280;62475;52.192;5.396;2022-08-21T04:58:52;101730.22;;;13.63;96.02
74125;BME280;62475;52.192;5.396;2022-08-21T05:01:20;101733.50;;;13.65;95.40
74125;BME280;62475;52.192;5.396;2022-08-21T05:03:48;101734.34;;;13.65;96.03
74125;BME280;62475;52.192;5.396;2022-08-21T05:06:15;101735.13;;;13.66;96.21
74125;BME280;62475;52.192;5.396;2022-08-21T05:08:42;101727.69;;;13.66;94.69
74125;BME280;62475;52.192;5.396;2022-08-21T05:11:10;101730.44;;;13.66;94.97
74125;BME280;62475;52.192;5.396;2022-08-21T05:13:36;101735.63;;;13.73;95.69
74125;BME280;62475;52.192;5.396;2022-08-21T05:16:01;101745.81;;;13.78;94.61
74125;BME280;62475;52.192;5.396;2022-08-21T05:18:28;101737.22;;;13.79;95.03
74125;BME280;62475;52.192;5.396;2022-08-21T05:20:53;101748.69;;;13.91;94.84
74125;BME280;62475;52.192;5.396;2022-08-21T05:23:18;101747.47;;;13.97;94.77
74125;BME280;62475;52.192;5.396;2022-08-21T05:25:43;101748.53;;;14.01;95.09
74125;BME280;62475;52.192;5.396;2022-08-21T05:28:09;101752.31;;;14.10;94.27
74125;BME280;62475;52.192;5.396;2022-08-21T05:30:36;101762.91;;;14.27;92.93
74125;BME280;62475;52.192;5.396;2022-08-21T05:33:03;101739.38;;;14.29;93.23
74125;BME280;62475;52.192;5.396;2022-08-21T05:35:30;101748.81;;;14.47;91.68
74125;BME280;62475;52.192;5.396;2022-08-21T05:37:56;101747.31;;;14.54;91.38
74125;BME280;62475;52.192;5.396;2022-08-21T05:40:22;101747.41;;;14.68;91.33
74125;BME280;62475;52.192;5.396;2022-08-21T05:42:48;101754.84;;;14.86;91.60
74125;BME280;62475;52.192;5.396;2022-08-21T05:45:14;101751.66;;;14.98;91.04
74125;BME280;62475;52.192;5.396;2022-08-21T05:47:39;101746.53;;;15.05;89.94
74125;BME280;62475;52.192;5.396;2022-08-21T05:50:05;101751.13;;;15.28;89.29
74125;BME280;62475;52.192;5.396;2022-08-21T05:52:31;101738.19;;;15.42;90.02
74125;BME280;62475;52.192;5.396;2022-08-21T05:54:56;101747.53;;;15.59;89.14
74125;BME280;62475;52.192;5.396;2022-08-21T05:57:22;101742.63;;;15.97;87.99
74125;BME280;62475;52.192;5.396;2022-08-21T05:59:49;101737.09;;;16.11;86.72
74125;BME280;62475;52.192;5.396;2022-08-21T06:02:18;101739.66;;;16.21;86.15
74125;BME280;62475;52.192;5.396;2022-08-21T06:04:43;101710.28;;;16.20;85.95
74125;BME280;62475;52.192;5.396;2022-08-21T06:07:09;101734.28;;;16.51;85.35
74125;BME280;62475;52.192;5.396;2022-08-21T06:09:34;101732.19;;;16.70;85.37
74125;BME280;62475;52.192;5.396;2022-08-21T06:12:08;101730.56;;;16.91;84.49
74125;BME280;62475;52.192;5.396;2022-08-21T06:14:34;101737.13;;;16.95;84.41
74125;BME280;62475;52.192;5.396;2022-08-21T06:17:08;101740.03;;;16.90;84.02
74125;BME280;62475;52.192;5.396;2022-08-21T06:19:34;101733.03;;;16.93;84.76
74125;BME280;62475;52.192;5.396;2022-08-21T06:21:59;101736.63;;;17.16;83.82
74125;BME280;62475;52.192;5.396;2022-08-21T06:24:25;101746.25;;;17.40;82.75
74125;BME280;62475;52.192;5.396;2022-08-21T06:26:50;101737.59;;;17.42;82.69
74125;BME280;62475;52.192;5.396;2022-08-21T06:29:16;101742.25;;;17.77;81.29
74125;BME280;62475;52.192;5.396;2022-08-21T06:31:43;101736.97;;;17.45;82.59
74125;BME280;62475;52.192;5.396;2022-08-21T06:34:09;101738.47;;;17.73;81.56
74125;BME280;62475;52.192;5.396;2022-08-21T06:36:34;101728.91;;;17.35;82.37
74125;BME280;62475;52.192;5.396;2022-08-21T06:39:00;101738.56;;;17.98;82.04
74125;BME280;62475;52.192;5.396;2022-08-21T06:41:25;101733.78;;;17.90;81.59
74125;BME280;62475;52.192;5.396;2022-08-21T06:43:51;101744.06;;;17.81;81.29
74125;BME280;62475;52.192;5.396;2022-08-21T06:46:16;101744.34;;;17.71;82.74
74125;BME280;62475;52.192;5.396;2022-08-21T06:48:41;101740.22;;;17.99;80.98
74125;BME280;62475;52.192;5.396;2022-08-21T06:51:07;101721.47;;;17.74;82.07
74125;BME280;62475;52.192;5.396;2022-08-21T06:53:32;101739.47;;;17.77;82.52
74125;BME280;62475;52.192;5.396;2022-08-21T06:55:57;101736.47;;;18.12;80.96
74125;BME280;62475;52.192;5.396;2022-08-21T06:58:23;101731.91;;;18.17;80.92
74125;BME280;62475;52.192;5.396;2022-08-21T07:00:49;101721.44;;;18.13;81.12
74125;BME280;62475;52.192;5.396;2022-08-21T07:03:22;101729.06;;;18.47;80.64
74125;BME280;62475;52.192;5.396;2022-08-21T07:05:47;101722.81;;;17.85;82.35
74125;BME280;62475;52.192;5.396;2022-08-21T07:08:13;101725.34;;;18.12;81.20
74125;BME280;62475;52.192;5.396;2022-08-21T07:10:38;101723.25;;;18.18;81.65
74125;BME280;62475;52.192;5.396;2022-08-21T07:13:04;101732.41;;;18.19;81.30
74125;BME280;62475;52.192;5.396;2022-08-21T07:15:29;101739.59;;;18.20;82.59
74125;BME280;62475;52.192;5.396;2022-08-21T07:17:54;101729.47;;;18.15;82.14
74125;BME280;62475;52.192;5.396;2022-08-21T07:20:20;101733.69;;;18.12;81.09
74125;BME280;62475;52.192;5.396;2022-08-21T07:22:45;101709.84;;;18.29;82.09
74125;BME280;62475;52.192;5.396;2022-08-21T07:25:10;101727.09;;;18.56;81.26
74125;BME280;62475;52.192;5.396;2022-08-21T07:27:36;101722.22;;;18.70;80.76
74125;BME280;62475;52.192;5.396;2022-08-21T07:30:02;101727.13;;;18.82;80.82
74125;BME280;62475;52.192;5.396;2022-08-21T07:32:28;101730.88;;;19.11;79.10
74125;BME280;62475;52.192;5.396;2022-08-21T07:34:54;101736.28;;;18.99;80.02
74125;BME280;62475;52.192;5.396;2022-08-21T07:37:19;101733.19;;;18.75;79.35
74125;BME280;62475;52.192;5.396;2022-08-21T07:39:45;101731.72;;;18.69;80.29
74125;BME280;62475;52.192;5.396;2022-08-21T07:42:14;101739.53;;;19.18;80.24
74125;BME280;62475;52.192;5.396;2022-08-21T07:44:39;101747.72;;;19.15;78.73
74125;BME280;62475;52.192;5.396;2022-08-21T07:47:04;101719.72;;;19.11;78.65
74125;BME280;62475;52.192;5.396;2022-08-21T07:49:30;101727.25;;;19.19;78.86
74125;BME280;62475;52.192;5.396;2022-08-21T07:51:55;101739.56;;;19.01;79.44
74125;BME280;62475;52.192;5.396;2022-08-21T07:54:21;101739.38;;;19.41;79.31
74125;BME280;62475;52.192;5.396;2022-08-21T07:56:46;101737.16;;;19.72;78.60
74125;BME280;62475;52.192;5.396;2022-08-21T07:59:12;101745.22;;;20.02;77.44
74125;BME280;62475;52.192;5.396;2022-08-21T08:01:37;101743.31;;;19.94;77.31
74125;BME280;62475;52.192;5.396;2022-08-21T08:04:03;101735.13;;;19.81;77.29
74125;BME280;62475;52.192;5.396;2022-08-21T08:06:29;101737.50;;;20.37;76.46
74125;BME280;62475;52.192;5.396;2022-08-21T08:08:54;101736.91;;;20.52;76.21
74125;BME280;62475;52.192;5.396;2022-08-21T08:11:19;101722.50;;;20.50;74.82
74125;BME280;62475;52.192;5.396;2022-08-21T08:13:47;101724.88;;;20.60;74.97
74125;BME280;62475;52.192;5.396;2022-08-21T08:16:14;101722.16;;;20.52;75.47
74125;BME280;62475;52.192;5.396;2022-08-21T08:18:39;101726.97;;;20.43;74.97
74125;BME280;62475;52.192;5.396;2022-08-21T08:21:06;101725.97;;;19.80;76.51
74125;BME280;62475;52.192;5.396;2022-08-21T08:23:32;101728.81;;;20.01;77.91
74125;BME280;62475;52.192;5.396;2022-08-21T08:25:58;101722.25;;;19.68;78.41
74125;BME280;62475;52.192;5.396;2022-08-21T08:28:23;101718.25;;;20.15;77.18
74125;BME280;62475;52.192;5.396;2022-08-21T08:30:49;101721.31;;;20.72;76.89
74125;BME280;62475;52.192;5.396;2022-08-21T08:33:15;101705.47;;;20.64;75.05
74125;BME280;62475;52.192;5.396;2022-08-21T08:35:46;101712.66;;;20.85;73.10
74125;BME280;62475;52.192;5.396;2022-08-21T08:38:13;101715.19;;;20.78;73.17
74125;BME280;62475;52.192;5.396;2022-08-21T08:41:10;101719.69;;;20.91;74.23
74125;BME280;62475;52.192;5.396;2022-08-21T08:43:38;101728.25;;;20.45;75.08
74125;BME280;62475;52.192;5.396;2022-08-21T08:46:12;101716.50;;;20.40;75.06
74125;BME280;62475;52.192;5.396;2022-08-21T08:48:45;101719.28;;;20.60;73.29
74125;BME280;62475;52.192;5.396;2022-08-21T08:51:37;101726.25;;;20.95;75.97
74125;BME280;62475;52.192;5.396;2022-08-21T08:54:08;101731.75;;;20.63;74.64
74125;BME280;62475;52.192;5.396;2022-08-21T08:56:35;101728.44;;;20.69;74.11
74125;BME280;62475;52.192;5.396;2022-08-21T08:59:07;101712.28;;;20.95;72.81
74125;BME280;62475;52.192;5.396;2022-08-21T09:01:34;101676.03;;;20.66;72.65
74125;BME280;62475;52.192;5.396;2022-08-21T09:03:59;101712.31;;;21.28;71.99
74125;BME280;62475;52.192;5.396;2022-08-21T09:06:41;101716.22;;;21.60;71.43
74125;BME280;62475;52.192;5.396;2022-08-21T09:11:59;101710.06;;;21.21;70.50
74125;BME280;62475;52.192;5.396;2022-08-21T09:14:39;101712.34;;;21.40;69.90
74125;BME280;62475;52.192;5.396;2022-08-21T09:17:13;101715.31;;;21.23;71.45
74125;BME280;62475;52.192;5.396;2022-08-21T09:23:05;101712.31;;;21.97;69.17
74125;BME280;62475;52.192;5.396;2022-08-21T09:25:42;101706.25;;;22.07;68.25
74125;BME280;62475;52.192;5.396;2022-08-21T09:28:11;101711.38;;;21.93;68.26
74125;BME280;62475;52.192;5.396;2022-08-21T09:30:40;101713.88;;;21.62;69.08
74125;BME280;62475;52.192;5.396;2022-08-21T09:33:06;101721.53;;;21.85;69.75
74125;BME280;62475;52.192;5.396;2022-08-21T09:35:32;101717.19;;;21.31;69.58
74125;BME280;62475;52.192;5.396;2022-08-21T09:38:06;101696.28;;;21.49;67.55
74125;BME280;62475;52.192;5.396;2022-08-21T09:40:38;101716.16;;;21.80;68.62
74125;BME280;62475;52.192;5.396;2022-08-21T09:43:19;101714.38;;;21.76;67.93
74125;BME280;62475;52.192;5.396;2022-08-21T09:45:46;101725.06;;;21.74;67.25
74125;BME280;62475;52.192;5.396;2022-08-21T09:48:14;101722.75;;;21.76;66.75
74125;BME280;62475;52.192;5.396;2022-08-21T09:50:41;101706.13;;;21.79;67.45
74125;BME280;62475;52.192;5.396;2022-08-21T09:55:51;101716.75;;;21.86;69.56
74125;BME280;62475;52.192;5.396;2022-08-21T09:58:54;101721.06;;;21.83;68.46
74125;BME280;62475;52.192;5.396;2022-08-21T10:01:23;101710.56;;;21.92;68.42
74125;BME280;62475;52.192;5.396;2022-08-21T10:04:01;101709.94;;;21.75;68.28
74125;BME280;62475;52.192;5.396;2022-08-21T10:06:28;101692.25;;;22.07;65.51
74125;BME280;62475;52.192;5.396;2022-08-21T10:09:16;101693.59;;;22.49;64.12
74125;BME280;62475;52.192;5.396;2022-08-21T10:17:22;101690.97;;;23.08;64.10
74125;BME280;62475;52.192;5.396;2022-08-21T10:20:19;101698.53;;;23.19;63.50
74125;BME280;62475;52.192;5.396;2022-08-21T10:23:02;101709.25;;;23.29;60.87
74125;BME280;62475;52.192;5.396;2022-08-21T10:25:36;101702.09;;;23.32;61.07
74125;BME280;62475;52.192;5.396;2022-08-21T10:55:02;101678.03;;;23.93;59.55
74125;BME280;62475;52.192;5.396;2022-08-21T10:57:52;101678.41;;;23.92;59.02
74125;BME280;62475;52.192;5.396;2022-08-21T11:00:22;101673.63;;;23.92;59.71
74125;BME280;62475;52.192;5.396;2022-08-21T11:02:50;101671.28;;;24.44;57.90
74125;BME280;62475;52.192;5.396;2022-08-21T11:08:23;101662.03;;;24.44;56.01
74125;BME280;62475;52.192;5.396;2022-08-21T11:11:03;101673.81;;;23.52;58.48
74125;BME280;62475;52.192;5.396;2022-08-21T11:16:19;101671.78;;;23.37;58.94
74125;BME280;62475;52.192;5.396;2022-08-21T11:18:53;101670.28;;;23.40;59.70
74125;BME280;62475;52.192;5.396;2022-08-21T11:26:46;101675.69;;;23.05;58.46
74125;BME280;62475;52.192;5.396;2022-08-21T11:29:21;101672.63;;;23.10;58.30
74125;BME280;62475;52.192;5.396;2022-08-21T11:37:23;101645.47;;;22.99;57.55
74125;BME280;62475;52.192;5.396;2022-08-21T11:43:19;101680.19;;;22.94;60.96
74125;BME280;62475;52.192;5.396;2022-08-21T11:45:56;101664.00;;;22.36;63.58
74125;BME280;62475;52.192;5.396;2022-08-21T11:48:40;101689.41;;;22.95;61.68
74125;BME280;62475;52.192;5.396;2022-08-21T11:51:13;101696.66;;;23.11;60.82
74125;BME280;62475;52.192;5.396;2022-08-21T11:53:51;101697.28;;;23.32;60.84
74125;BME280;62475;52.192;5.396;2022-08-21T11:56:29;101691.53;;;23.72;60.88
74125;BME280;62475;52.192;5.396;2022-08-21T11:59:02;101689.09;;;23.86;58.44
74125;BME280;62475;52.192;5.396;2022-08-21T12:01:36;101694.34;;;23.88;57.66
74125;BME280;62475;52.192;5.396;2022-08-21T12:04:08;101686.09;;;24.10;56.48
74125;BME280;62475;52.192;5.396;2022-08-21T12:06:41;101703.47;;;24.31;56.31
74125;BME280;62475;52.192;5.396;2022-08-21T12:09:33;101688.53;;;24.46;54.72
74125;BME280;62475;52.192;5.396;2022-08-21T12:14:38;101683.41;;;25.06;54.34
74125;BME280;62475;52.192;5.396;2022-08-21T12:17:06;101645.59;;;25.22;54.20
74125;BME280;62475;52.192;5.396;2022-08-21T12:19:31;101670.28;;;24.91;52.58
74125;BME280;62475;52.192;5.396;2022-08-21T12:24:37;101691.16;;;23.74;59.08
74125;BME280;62475;52.192;5.396;2022-08-21T12:27:28;101681.97;;;24.39;57.84
74125;BME280;62475;52.192;5.396;2022-08-21T12:30:17;101683.66;;;24.09;56.33
74125;BME280;62475;52.192;5.396;2022-08-21T12:32:46;101685.00;;;24.30;58.14
74125;BME280;62475;52.192;5.396;2022-08-21T12:35:24;101668.22;;;24.34;56.76
74125;BME280;62475;52.192;5.396;2022-08-21T12:38:32;101682.34;;;24.72;57.02
74125;BME280;62475;52.192;5.396;2022-08-21T12:41:01;101670.50;;;24.82;54.00
74125;BME280;62475;52.192;5.396;2022-08-21T12:43:30;101693.88;;;24.32;55.30
74125;BME280;62475;52.192;5.396;2022-08-21T12:45:57;101691.53;;;24.03;54.88
74125;BME280;62475;52.192;5.396;2022-08-21T12:48:33;101679.03;;;24.16;56.80
74125;BME280;62475;52.192;5.396;2022-08-21T12:51:18;101695.91;;;23.85;56.93
74125;BME280;62475;52.192;5.396;2022-08-21T12:53:52;101689.47;;;23.69;57.08
74125;BME280;62475;52.192;5.396;2022-08-21T12:56:20;101686.19;;;23.98;57.25
74125;BME280;62475;52.192;5.396;2022-08-21T12:58:47;101684.50;;;24.63;54.90
74125;BME280;62475;52.192;5.396;2022-08-21T13:01:23;101695.13;;;24.69;54.80
74125;BME280;62475;52.192;5.396;2022-08-21T13:03:53;101697.00;;;24.81;52.46
74125;BME280;62475;52.192;5.396;2022-08-21T13:06:20;101685.44;;;25.05;53.23
74125;BME280;62475;52.192;5.396;2022-08-21T13:08:47;101680.75;;;24.94;51.77
74125;BME280;62475;52.192;5.396;2022-08-21T13:11:17;101690.78;;;24.91;51.78
74125;BME280;62475;52.192;5.396;2022-08-21T13:13:48;101673.44;;;25.08;51.98
74125;BME280;62475;52.192;5.396;2022-08-21T13:16:22;101698.47;;;25.55;50.80
74125;BME280;62475;52.192;5.396;2022-08-21T13:19:07;101699.00;;;24.65;52.59
74125;BME280;62475;52.192;5.396;2022-08-21T13:21:41;101695.19;;;24.73;53.01
74125;BME280;62475;52.192;5.396;2022-08-21T13:26:41;101697.28;;;25.56;51.78
74125;BME280;62475;52.192;5.396;2022-08-21T13:29:09;101695.00;;;25.42;49.93
74125;BME280;62475;52.192;5.396;2022-08-21T13:31:37;101692.25;;;24.85;50.59
74125;BME280;62475;52.192;5.396;2022-08-21T13:34:05;101679.94;;;24.55;49.90
74125;BME280;62475;52.192;5.396;2022-08-21T13:36:35;101691.38;;;24.81;50.80
74125;BME280;62475;52.192;5.396;2022-08-21T13:39:07;101682.34;;;24.72;52.69
74125;BME280;62475;52.192;5.396;2022-08-21T13:41:35;101679.31;;;23.96;55.50
74125;BME280;62475;52.192;5.396;2022-08-21T13:44:22;101692.09;;;24.09;54.87
74125;BME280;62475;52.192;5.396;2022-08-21T13:46:52;101672.16;;;23.83;55.92
74125;BME280;62475;52.192;5.396;2022-08-21T13:49:19;101692.44;;;24.07;56.29
74125;BME280;62475;52.192;5.396;2022-08-21T13:51:46;101695.34;;;24.11;53.81
74125;BME280;62475;52.192;5.396;2022-08-21T13:54:26;101692.59;;;24.30;53.99
74125;BME280;62475;52.192;5.396;2022-08-21T13:56:52;101690.78;;;24.37;53.39
74125;BME280;62475;52.192;5.396;2022-08-21T13:59:33;101686.41;;;24.59;52.94
74125;BME280;62475;52.192;5.396;2022-08-21T14:02:12;101690.47;;;24.77;52.36
74125;BME280;62475;52.192;5.396;2022-08-21T14:04:43;101692.66;;;24.68;53.90
74125;BME280;62475;52.192;5.396;2022-08-21T14:07:20;101689.56;;;24.38;54.11
74125;BME280;62475;52.192;5.396;2022-08-21T14:09:46;101657.97;;;24.26;53.68